Brisas de Campanero, Puerto Rico
Current Conditions -  °F | °C
As of 7:56 AM on Friday 21 Nov 2014 (Local Time) from TJSJ Reporting Station
Scattered Clouds Scattered Clouds  
Wind Chill: 80°   Ceiling: Unl
Heat Index: 84°   Visibility: 10mi
Dew Point: 73°   Wind: 0mph
Humidity: 79%   Direction: NA
Pressure: 30.02"   Gusts: NA
Location:  18.4519°N, 66.1817°W
Report Text: TJSJ 211156Z 00000KT 10SM FEW035 SCT041 SCT055 27/23 A3002 RMK AO2 SLP165 SHRA DSNT SE-S 60002 70005 T02670228 10272 20250 53013
Loading
Personal Weather Stations






























Interactive Weather Map New forecast layout! Learn more

10-Day Weather Forecast

Advertisements
Track Severe Weather on mobile